createdAt,value
2019-04-03T00:00:42.116Z,11.85
2019-04-03T00:03:08.522Z,12.23
2019-04-03T00:05:35.390Z,11.80
2019-04-03T00:08:02.601Z,12.15
2019-04-03T00:10:28.901Z,12.30
2019-04-03T00:12:55.286Z,13.00
2019-04-03T00:15:21.892Z,13.08
2019-04-03T00:17:48.294Z,12.58
2019-04-03T00:20:14.820Z,11.80
2019-04-03T00:22:41.229Z,12.93
2019-04-03T00:25:07.783Z,12.13
2019-04-03T00:27:34.184Z,12.82
2019-04-03T00:30:04.400Z,12.03
2019-04-03T00:32:31.307Z,12.80
2019-04-03T00:34:57.697Z,12.75
2019-04-03T00:37:24.182Z,13.18
2019-04-03T00:39:50.482Z,13.13
2019-04-03T00:42:17.980Z,14.33
2019-04-03T00:44:44.275Z,14.83
2019-04-03T00:47:10.566Z,14.43
2019-04-03T00:49:37.108Z,15.35
2019-04-03T00:52:03.675Z,15.20
2019-04-03T00:54:31.154Z,15.28
2019-04-03T00:56:57.973Z,15.63
2019-04-03T00:59:24.713Z,16.80
2019-04-03T01:01:52.511Z,17.40
2019-04-03T01:04:18.891Z,15.68
2019-04-03T01:06:45.295Z,15.45
2019-04-03T01:09:11.659Z,15.40
2019-04-03T01:11:49.050Z,16.70
2019-04-03T01:14:15.487Z,16.48
2019-04-03T01:16:41.894Z,17.45
2019-04-03T01:19:08.402Z,17.55
2019-04-03T01:21:37.278Z,16.85
2019-04-03T01:24:03.836Z,17.55
2019-04-03T01:26:30.340Z,17.80
2019-04-03T01:28:56.746Z,16.93
2019-04-03T01:31:23.012Z,18.42
2019-04-03T01:33:49.318Z,18.52
2019-04-03T01:36:17.132Z,18.05
2019-04-03T01:38:43.805Z,18.25
2019-04-03T01:41:10.072Z,18.73
2019-04-03T01:43:36.846Z,18.50
2019-04-03T01:46:03.296Z,18.45
2019-04-03T01:48:29.616Z,18.48
2019-04-03T01:50:56.047Z,18.52
2019-04-03T01:53:22.482Z,19.67
2019-04-03T01:55:48.890Z,18.98
2019-04-03T01:58:15.186Z,18.95
2019-04-03T02:00:41.610Z,19.77
2019-04-03T02:03:09.772Z,20.95
2019-04-03T02:05:36.213Z,20.97
2019-04-03T02:08:02.777Z,20.52
2019-04-03T02:10:29.349Z,20.90
2019-04-03T02:12:55.737Z,20.90
2019-04-03T02:15:35.289Z,20.15
2019-04-03T02:18:01.869Z,22.10
2019-04-03T02:20:28.339Z,21.42
2019-04-03T02:22:54.762Z,22.48
2019-04-03T02:25:21.304Z,21.02
2019-04-03T02:27:47.696Z,20.52
2019-04-03T02:30:15.000Z,20.37
2019-04-03T02:32:41.925Z,19.30
2019-04-03T02:35:28.160Z,19.80
2019-04-03T02:37:54.681Z,20.43
2019-04-03T02:40:21.229Z,18.95
2019-04-03T02:42:47.963Z,20.17
2019-04-03T02:45:14.471Z,20.20
2019-04-03T02:47:40.992Z,21.77
2019-04-03T02:50:08.996Z,20.52
2019-04-03T02:52:35.510Z,19.55
2019-04-03T02:55:02.571Z,20.60
2019-04-03T02:57:30.499Z,19.48
2019-04-03T02:59:58.788Z,21.25
2019-04-03T03:02:24.971Z,21.50
2019-04-03T03:05:11.350Z,21.20
2019-04-03T03:07:37.888Z,20.85
2019-04-03T03:10:06.301Z,21.80
2019-04-03T03:12:33.386Z,21.62
2019-04-03T03:15:00.473Z,21.73
2019-04-03T03:17:28.987Z,20.68
2019-04-03T03:19:58.494Z,20.25
2019-04-03T03:22:24.961Z,21.42
2019-04-03T03:24:52.996Z,22.25
2019-04-03T03:27:19.561Z,21.40
2019-04-03T03:29:46.170Z,21.57
2019-04-03T03:32:19.961Z,22.17
2019-04-03T03:34:55.123Z,21.65
2019-04-03T03:37:12.255Z,21.45
2019-04-03T03:39:42.521Z,21.30
2019-04-03T03:42:07.268Z,21.80
2019-04-03T03:44:34.245Z,21.35
2019-04-03T03:47:02.694Z,20.97
2019-04-03T03:49:29.868Z,22.05
2019-04-03T03:52:02.641Z,22.40
2019-04-03T03:54:28.263Z,21.97
2019-04-03T03:56:54.873Z,22.62
2019-04-03T03:59:23.154Z,22.27
2019-04-03T04:01:49.678Z,23.98
2019-04-03T04:04:36.358Z,24.37
2019-04-03T04:07:04.482Z,23.60
2019-04-03T04:09:31.403Z,24.85
2019-04-03T04:11:58.003Z,22.98
2019-04-03T04:14:24.950Z,22.52
2019-04-03T04:16:51.589Z,23.98
2019-04-03T04:19:18.178Z,24.07
2019-04-03T04:21:45.214Z,23.32
2019-04-03T04:24:12.295Z,23.98
2019-04-03T04:26:39.105Z,24.35
2019-04-03T04:29:05.607Z,24.15
2019-04-03T04:31:32.019Z,24.07
2019-04-03T04:33:58.478Z,25.30
2019-04-03T04:36:24.944Z,25.43
2019-04-03T04:38:51.397Z,25.40
2019-04-03T04:41:18.872Z,25.68
2019-04-03T04:43:45.330Z,26.48
2019-04-03T04:46:13.315Z,25.85
2019-04-03T04:48:40.066Z,27.67
2019-04-03T04:51:06.344Z,27.27
2019-04-03T04:53:32.691Z,27.93
2019-04-03T04:55:59.077Z,28.95
2019-04-03T04:58:25.416Z,28.73
2019-04-03T05:00:53.686Z,30.25
2019-04-03T05:03:21.877Z,29.10
2019-04-03T05:05:48.356Z,27.73
2019-04-03T05:08:14.783Z,31.70
2019-04-03T05:10:41.123Z,32.75
2019-04-03T05:13:07.508Z,30.23
2019-04-03T05:15:34.136Z,29.60
2019-04-03T05:18:01.192Z,29.70
2019-04-03T05:20:27.833Z,28.60
2019-04-03T05:22:55.383Z,28.38
2019-04-03T05:25:22.496Z,30.72
2019-04-03T05:27:49.023Z,29.52
2019-04-03T05:30:28.977Z,30.92
2019-04-03T05:32:55.555Z,28.95
2019-04-03T05:35:24.233Z,29.30
2019-04-03T05:37:50.932Z,28.47
2019-04-03T05:40:18.165Z,29.02
2019-04-03T05:42:44.837Z,27.07
2019-04-03T05:45:15.476Z,27.73
2019-04-03T05:47:42.878Z,27.05
2019-04-03T05:50:09.461Z,28.15
2019-04-03T05:52:36.063Z,29.35
2019-04-03T05:55:04.287Z,28.00
2019-04-03T05:57:32.597Z,26.62
2019-04-03T06:00:01.923Z,28.80
2019-04-03T06:02:27.273Z,27.05
2019-04-03T06:04:54.709Z,28.98
2019-04-03T06:07:21.077Z,28.60
2019-04-03T06:09:47.402Z,27.52
2019-04-03T06:12:14.565Z,27.13
2019-04-03T06:14:42.035Z,25.50
2019-04-03T06:17:08.445Z,27.65
2019-04-03T06:19:37.621Z,27.10
2019-04-03T06:22:03.417Z,27.17
2019-04-03T06:24:31.654Z,28.02
2019-04-03T06:26:58.075Z,29.37
2019-04-03T06:29:24.534Z,29.45
2019-04-03T06:32:12.731Z,34.45
2019-04-03T06:34:42.481Z,28.65
2019-04-03T06:37:07.386Z,29.07
2019-04-03T06:39:33.892Z,28.47
2019-04-03T06:42:00.255Z,29.55
2019-04-03T06:44:26.641Z,30.48
2019-04-03T06:46:54.681Z,29.63
2019-04-03T06:49:21.124Z,29.12
2019-04-03T06:51:49.348Z,28.75
2019-04-03T06:54:15.676Z,28.07
2019-04-03T06:56:42.154Z,30.88
2019-04-03T06:59:08.528Z,29.67
2019-04-03T07:01:35.026Z,30.20
2019-04-03T07:04:01.502Z,30.68
2019-04-03T07:06:29.423Z,29.18
2019-04-03T07:08:56.030Z,29.45
2019-04-03T07:11:23.962Z,29.02
2019-04-03T07:13:53.220Z,29.65
2019-04-03T07:16:19.387Z,31.77
2019-04-03T07:18:46.066Z,30.17
2019-04-03T07:21:12.713Z,30.45
2019-04-03T07:23:40.333Z,29.85
2019-04-03T07:26:06.758Z,31.17
2019-04-03T07:28:33.143Z,29.75
2019-04-03T07:30:59.659Z,30.70
2019-04-03T07:33:28.456Z,29.55
2019-04-03T07:35:54.252Z,29.07
2019-04-03T07:38:22.216Z,29.20
2019-04-03T07:40:51.066Z,29.87
2019-04-03T07:43:17.181Z,29.48
2019-04-03T07:45:43.982Z,28.90
2019-04-03T07:48:10.617Z,29.27
2019-04-03T07:50:37.233Z,28.40
2019-04-03T07:53:03.730Z,30.70
2019-04-03T07:55:30.130Z,27.50
2019-04-03T07:57:58.026Z,28.73
2019-04-03T08:00:24.921Z,26.17
2019-04-03T08:02:51.322Z,25.77
2019-04-03T08:05:17.821Z,25.32
2019-04-03T08:07:44.246Z,25.70
2019-04-03T08:10:10.961Z,25.15
2019-04-03T08:12:37.350Z,24.67
2019-04-03T08:15:06.360Z,25.35
2019-04-03T08:17:32.643Z,23.98
2019-04-03T08:19:58.979Z,21.23
2019-04-03T08:22:25.721Z,21.87
2019-04-03T08:24:53.891Z,20.52
2019-04-03T08:27:22.704Z,20.60
2019-04-03T08:29:49.178Z,21.27
2019-04-03T08:32:16.277Z,22.25
2019-04-03T08:34:43.614Z,22.22
2019-04-03T08:37:10.860Z,20.23
2019-04-03T08:39:37.265Z,19.62
2019-04-03T08:42:03.653Z,20.43
2019-04-03T08:44:30.203Z,20.80
2019-04-03T08:46:56.608Z,20.57
2019-04-03T08:49:25.687Z,20.27
2019-04-03T08:51:51.106Z,19.05
2019-04-03T08:54:17.478Z,18.92
2019-04-03T08:56:43.806Z,20.23
2019-04-03T08:59:12.692Z,20.70
2019-04-03T09:01:38.507Z,19.95
2019-04-03T09:04:04.882Z,19.35
2019-04-03T09:06:31.444Z,20.68
2019-04-03T09:08:58.701Z,19.70
2019-04-03T09:11:25.647Z,20.72
2019-04-03T09:13:53.017Z,20.40
2019-04-03T09:16:20.232Z,19.05
2019-04-03T09:18:46.540Z,19.17
2019-04-03T09:21:15.099Z,21.77
2019-04-03T09:23:41.242Z,19.92
2019-04-03T09:26:07.604Z,21.00
2019-04-03T09:28:33.957Z,21.77
2019-04-03T09:31:00.368Z,20.90
2019-04-03T09:33:29.229Z,21.15
2019-04-03T09:35:54.921Z,20.15
2019-04-03T09:38:21.262Z,19.62
2019-04-03T09:40:48.695Z,19.95
2019-04-03T09:43:15.740Z,18.42
2019-04-03T09:45:43.037Z,18.92
2019-04-03T09:48:11.634Z,18.35
2019-04-03T09:50:37.836Z,18.87
2019-04-03T09:53:04.594Z,19.02
2019-04-03T09:55:35.430Z,18.42
2019-04-03T09:58:02.406Z,18.05
2019-04-03T10:00:28.210Z,18.70
2019-04-03T10:02:55.279Z,19.00
2019-04-03T10:05:21.661Z,18.60
2019-04-03T10:07:49.357Z,17.77
2019-04-03T10:10:17.021Z,18.73
2019-04-03T10:12:47.607Z,18.57
2019-04-03T10:15:12.946Z,18.73
2019-04-03T10:17:39.693Z,18.62
2019-04-03T10:20:07.494Z,17.45
2019-04-03T10:22:33.788Z,19.80
2019-04-03T10:25:00.679Z,17.62
2019-04-03T10:27:28.318Z,16.95
2019-04-03T10:29:56.509Z,18.15
2019-04-03T10:32:23.017Z,17.90
2019-04-03T10:34:49.363Z,17.42
2019-04-03T10:37:16.093Z,16.80
2019-04-03T10:39:44.391Z,16.77
2019-04-03T10:42:11.344Z,17.25
2019-04-03T10:44:37.805Z,16.52
2019-04-03T10:47:04.735Z,17.02
2019-04-03T10:49:32.446Z,17.05
2019-04-03T10:51:59.472Z,16.45
2019-04-03T10:54:26.252Z,16.48
2019-04-03T10:56:52.579Z,16.17
2019-04-03T10:59:19.102Z,16.10
2019-04-03T11:01:47.178Z,15.32
2019-04-03T11:04:13.656Z,13.68
2019-04-03T11:06:40.158Z,14.80
2019-04-03T11:09:07.635Z,15.00
2019-04-03T11:11:36.908Z,13.70
2019-04-03T11:14:04.852Z,15.08
2019-04-03T11:16:32.582Z,15.20
2019-04-03T11:19:04.469Z,16.60
2019-04-03T11:21:27.054Z,15.00
2019-04-03T11:23:53.667Z,14.20
2019-04-03T11:26:23.601Z,14.07
2019-04-03T11:28:48.473Z,13.38
2019-04-03T11:31:24.557Z,13.18
2019-04-03T11:33:45.613Z,13.18
2019-04-03T11:36:11.450Z,14.40
2019-04-03T11:38:37.750Z,11.78
2019-04-03T11:41:12.388Z,11.88
2019-04-03T11:43:32.623Z,10.95
2019-04-03T11:45:59.183Z,12.05
2019-04-03T11:48:27.225Z,11.78
2019-04-03T11:50:56.333Z,12.47
2019-04-03T11:53:22.730Z,11.50
2019-04-03T11:55:49.202Z,10.20
2019-04-03T11:58:20.194Z,9.35
2019-04-03T12:00:48.506Z,9.28
2019-04-03T12:03:14.908Z,8.40
2019-04-03T12:05:41.625Z,8.05
2019-04-03T12:08:08.515Z,9.23
2019-04-03T12:10:35.607Z,9.85
2019-04-03T12:13:04.640Z,9.60
2019-04-03T12:15:33.766Z,9.63
2019-04-03T12:18:01.139Z,10.18
2019-04-03T12:20:28.378Z,10.35
2019-04-03T12:22:55.718Z,9.70
2019-04-03T12:25:22.656Z,10.25
2019-04-03T12:27:49.967Z,10.45
2019-04-03T12:30:17.459Z,10.25
2019-04-03T12:32:48.772Z,10.88
2019-04-03T12:35:12.392Z,10.03
2019-04-03T12:37:39.272Z,10.95
2019-04-03T12:40:07.235Z,10.30
2019-04-03T12:42:34.204Z,9.98
2019-04-03T12:45:00.502Z,9.75
2019-04-03T12:47:28.330Z,10.40
2019-04-03T12:49:55.198Z,10.68
2019-04-03T12:52:34.847Z,9.68
2019-04-03T12:55:01.898Z,10.25
2019-04-03T12:57:29.131Z,10.32
2019-04-03T12:59:55.822Z,9.85
2019-04-03T13:02:22.485Z,11.00
2019-04-03T13:04:49.074Z,10.25
2019-04-03T13:07:15.539Z,10.08
2019-04-03T13:09:42.170Z,9.15
2019-04-03T13:12:09.598Z,9.95
2019-04-03T13:14:36.423Z,10.03
2019-04-03T13:17:02.936Z,9.85
2019-04-03T13:19:29.673Z,11.80
2019-04-03T13:21:56.203Z,9.18
2019-04-03T13:24:22.839Z,9.15
2019-04-03T13:26:49.310Z,9.40
2019-04-03T13:29:15.736Z,8.00
2019-04-03T13:31:42.308Z,9.13
2019-04-03T13:34:11.835Z,8.68
2019-04-03T13:36:38.928Z,8.90
2019-04-03T13:39:06.464Z,7.97
2019-04-03T13:41:34.311Z,8.95
2019-04-03T13:44:01.508Z,8.63
2019-04-03T13:46:28.852Z,8.13
2019-04-03T13:48:55.328Z,9.35
2019-04-03T13:51:22.279Z,8.98
2019-04-03T13:53:50.781Z,8.63
2019-04-03T13:56:17.607Z,9.90
2019-04-03T13:58:44.240Z,10.32
2019-04-03T14:01:10.985Z,9.48
2019-04-03T14:03:37.669Z,8.85
2019-04-03T14:06:05.480Z,9.55
2019-04-03T14:08:32.411Z,8.35
2019-04-03T14:10:59.023Z,7.33
2019-04-03T14:13:26.265Z,7.20
2019-04-03T14:15:54.812Z,7.25
2019-04-03T14:18:21.445Z,8.18
2019-04-03T14:20:50.358Z,8.05
2019-04-03T14:23:16.819Z,7.90
2019-04-03T14:25:43.484Z,8.15
2019-04-03T14:28:10.550Z,8.20
2019-04-03T14:30:37.299Z,7.65
2019-04-03T14:33:04.234Z,7.40
2019-04-03T14:35:47.287Z,6.90
2019-04-03T14:38:00.231Z,6.12
2019-04-03T14:40:26.905Z,6.05
2019-04-03T14:42:53.407Z,6.28
2019-04-03T14:45:20.031Z,6.65
2019-04-03T14:47:46.502Z,6.30
2019-04-03T14:50:13.824Z,6.00
2019-04-03T14:52:40.652Z,5.65
2019-04-03T14:55:18.034Z,5.30
2019-04-03T14:57:36.104Z,5.20
2019-04-03T15:00:22.044Z,5.90
2019-04-03T15:02:33.340Z,5.40
2019-04-03T15:05:00.181Z,5.85
2019-04-03T15:07:26.713Z,6.05
2019-04-03T15:09:53.168Z,6.22
2019-04-03T15:12:20.040Z,7.08
2019-04-03T15:14:46.515Z,7.70
2019-04-03T15:17:13.226Z,7.83
2019-04-03T15:19:40.191Z,7.33
2019-04-03T15:22:26.908Z,8.23
2019-04-03T15:24:53.838Z,9.35
2019-04-03T15:27:23.736Z,11.45
2019-04-03T15:29:50.539Z,13.13
2019-04-03T15:32:37.611Z,10.93
2019-04-03T15:35:05.310Z,11.73
2019-04-03T15:37:31.942Z,9.33
2019-04-03T15:39:59.196Z,10.20
2019-04-03T15:42:26.124Z,10.38
2019-04-03T15:44:53.297Z,10.88
2019-04-03T15:47:34.300Z,11.45
2019-04-03T15:49:49.982Z,15.40
2019-04-03T15:52:17.055Z,12.25
2019-04-03T15:54:44.135Z,11.85
2019-04-03T15:57:11.103Z,10.25
2019-04-03T15:59:48.313Z,10.95
2019-04-03T16:02:14.947Z,13.28
2019-04-03T16:04:41.924Z,10.50
2019-04-03T16:07:09.300Z,9.93
2019-04-03T16:09:35.997Z,9.90
2019-04-03T16:12:05.326Z,10.93
2019-04-03T16:14:31.138Z,10.98
2019-04-03T16:17:00.563Z,18.30
2019-04-03T16:19:26.202Z,11.55
2019-04-03T16:21:55.672Z,10.03
2019-04-03T16:24:21.571Z,9.85
2019-04-03T16:26:48.334Z,10.18
2019-04-03T16:29:14.682Z,10.00
2019-04-03T16:31:41.176Z,11.53
2019-04-03T16:34:12.029Z,12.80
2019-04-03T16:36:36.121Z,10.95
2019-04-03T16:39:06.051Z,9.68
2019-04-03T16:41:33.709Z,10.10
2019-04-03T16:44:00.393Z,9.93
2019-04-03T16:46:27.783Z,9.88
2019-04-03T16:48:55.049Z,7.42
2019-04-03T16:51:21.592Z,8.05
2019-04-03T16:53:48.430Z,6.65
2019-04-03T16:56:18.278Z,7.85
2019-04-03T16:58:46.400Z,8.50
2019-04-03T17:01:14.443Z,11.63
2019-04-03T17:03:42.104Z,9.25
2019-04-03T17:06:09.018Z,12.18
2019-04-03T17:08:36.185Z,9.60
2019-04-03T17:11:03.164Z,9.95
2019-04-03T17:13:30.161Z,8.13
2019-04-03T17:15:57.336Z,7.08
2019-04-03T17:18:25.441Z,8.95
2019-04-03T17:20:54.604Z,6.92
2019-04-03T17:23:20.582Z,6.85
2019-04-03T17:25:50.667Z,6.67
2019-04-03T17:28:16.614Z,6.83
2019-04-03T17:30:43.226Z,6.78
2019-04-03T17:33:09.617Z,6.37
2019-04-03T17:35:36.476Z,6.28
2019-04-03T17:38:04.607Z,7.40
2019-04-03T17:40:31.354Z,6.90
2019-04-03T17:42:58.593Z,6.83
2019-04-03T17:45:25.181Z,7.37
2019-04-03T17:47:53.873Z,6.25
2019-04-03T17:50:20.206Z,5.90
2019-04-03T17:52:46.922Z,5.85
2019-04-03T17:55:15.214Z,6.72
2019-04-03T17:57:45.385Z,6.67
2019-04-03T18:00:13.284Z,7.35
2019-04-03T18:02:40.053Z,7.95
2019-04-03T18:05:07.313Z,8.08
2019-04-03T18:07:33.939Z,8.63
2019-04-03T18:10:00.650Z,7.55
2019-04-03T18:12:38.084Z,8.28
2019-04-03T18:15:06.869Z,7.22
2019-04-03T18:17:33.423Z,7.72
2019-04-03T18:20:01.235Z,7.92
2019-04-03T18:22:27.784Z,8.08
2019-04-03T18:24:54.698Z,7.15
2019-04-03T18:27:21.530Z,14.25
2019-04-03T18:29:51.406Z,8.90
2019-04-03T18:32:18.094Z,11.53
2019-04-03T18:34:47.765Z,11.80
2019-04-03T18:37:13.038Z,12.35
2019-04-03T18:39:40.519Z,12.25
2019-04-03T18:42:07.818Z,10.30
2019-04-03T18:44:34.514Z,11.63
2019-04-03T18:47:00.938Z,10.48
2019-04-03T18:49:27.628Z,9.83
2019-04-03T18:51:54.285Z,10.03
2019-04-03T18:54:20.957Z,10.30
2019-04-03T18:56:47.541Z,9.00
2019-04-03T18:59:15.464Z,9.00
2019-04-03T19:01:42.288Z,8.88
2019-04-03T19:04:08.768Z,9.90
2019-04-03T19:06:35.358Z,10.43
2019-04-03T19:09:09.835Z,10.00
2019-04-03T19:11:34.349Z,10.03
2019-04-03T19:14:02.167Z,9.45
2019-04-03T19:16:34.246Z,9.83
2019-04-03T19:19:07.528Z,10.25
2019-04-03T19:21:28.703Z,10.78
2019-04-03T19:23:54.474Z,11.05
2019-04-03T19:26:21.158Z,11.50
2019-04-03T19:28:47.717Z,11.22
2019-04-03T19:31:14.647Z,11.73
2019-04-03T19:33:44.691Z,11.63
2019-04-03T19:36:11.358Z,13.53
2019-04-03T19:38:38.819Z,12.33
2019-04-03T19:41:05.990Z,12.00
2019-04-03T19:43:33.043Z,13.58
2019-04-03T19:46:00.655Z,13.53
2019-04-03T19:48:49.037Z,13.03
2019-04-03T19:51:20.561Z,13.80
2019-04-03T19:53:59.099Z,14.05
2019-04-03T19:58:51.147Z,13.03
2019-04-03T20:01:18.955Z,11.90
2019-04-03T20:03:46.850Z,14.87
2019-04-03T20:06:13.999Z,12.33
2019-04-03T20:08:40.778Z,11.78
2019-04-03T20:11:10.991Z,12.78
2019-04-03T20:13:39.503Z,12.00
2019-04-03T20:16:06.903Z,12.47
2019-04-03T20:18:33.566Z,12.63
2019-04-03T20:21:01.991Z,11.93
2019-04-03T20:23:30.293Z,12.82
2019-04-03T20:25:57.958Z,12.82
2019-04-03T20:28:24.945Z,13.22
2019-04-03T20:30:52.432Z,14.70
2019-04-03T20:33:21.545Z,12.98
2019-04-03T20:35:49.684Z,13.05
2019-04-03T20:38:16.989Z,12.33
2019-04-03T20:40:44.238Z,12.50
2019-04-03T20:43:11.831Z,13.15
2019-04-03T20:45:39.443Z,13.05
2019-04-03T20:48:06.116Z,14.35
2019-04-03T20:50:32.718Z,13.83
2019-04-03T20:52:59.284Z,13.55
2019-04-03T20:55:26.817Z,13.25
2019-04-03T20:57:55.967Z,14.65
2019-04-03T21:00:24.021Z,12.40
2019-04-03T21:02:50.591Z,12.10
2019-04-03T21:05:18.600Z,12.82
2019-04-03T21:07:45.982Z,11.45
2019-04-03T21:10:13.407Z,12.90
2019-04-03T21:12:40.092Z,13.62
2019-04-03T21:15:08.890Z,12.58
2019-04-03T21:17:35.171Z,13.58
2019-04-03T21:20:03.898Z,15.45
2019-04-03T21:22:30.430Z,13.65
2019-04-03T21:24:57.019Z,14.15
2019-04-03T21:27:23.663Z,14.07
2019-04-03T21:29:50.209Z,13.62
2019-04-03T21:32:16.831Z,13.30
2019-04-03T21:34:43.626Z,13.55
2019-04-03T21:37:10.292Z,14.85
2019-04-03T21:39:37.195Z,14.40
2019-04-03T21:42:03.877Z,14.10
2019-04-03T21:44:32.028Z,14.35
2019-04-03T21:46:58.915Z,13.95
2019-04-03T21:49:25.769Z,14.53
2019-04-03T21:51:52.458Z,14.15
2019-04-03T21:54:19.250Z,14.33
2019-04-03T21:56:45.931Z,13.55
2019-04-03T21:59:12.571Z,13.60
2019-04-03T22:01:39.231Z,13.58
2019-04-03T22:04:06.007Z,13.78
2019-04-03T22:06:32.439Z,13.78
2019-04-03T22:09:00.449Z,14.35
2019-04-03T22:11:29.288Z,13.70
2019-04-03T22:13:55.846Z,15.20
2019-04-03T22:16:22.591Z,15.48
2019-04-03T22:18:49.087Z,14.98
2019-04-03T22:21:15.402Z,14.50
2019-04-03T22:23:41.802Z,13.75
2019-04-03T22:26:09.796Z,13.93
2019-04-03T22:28:37.925Z,13.60
2019-04-03T22:31:04.558Z,15.23
2019-04-03T22:33:32.354Z,12.70
2019-04-03T22:35:58.901Z,13.43
2019-04-03T22:38:25.630Z,13.98
2019-04-03T22:40:52.308Z,13.00
2019-04-03T22:43:18.722Z,12.53
2019-04-03T22:45:45.212Z,13.08
2019-04-03T22:48:11.732Z,13.25
2019-04-03T22:50:38.318Z,12.43
2019-04-03T22:53:04.775Z,11.90
2019-04-03T22:55:31.385Z,12.82
2019-04-03T22:57:58.225Z,12.58
2019-04-03T23:00:25.862Z,12.58
2019-04-03T23:02:53.040Z,12.65
2019-04-03T23:05:19.647Z,11.85
2019-04-03T23:07:46.210Z,12.55
2019-04-03T23:10:13.883Z,12.18
2019-04-03T23:12:40.513Z,12.33
2019-04-03T23:15:09.663Z,11.93
2019-04-03T23:17:36.650Z,12.18
2019-04-03T23:20:04.686Z,12.58
2019-04-03T23:22:33.123Z,12.20
2019-04-03T23:25:00.174Z,12.88
2019-04-03T23:27:28.797Z,13.90
2019-04-03T23:29:55.440Z,13.18
2019-04-03T23:32:21.962Z,14.03
2019-04-03T23:34:49.585Z,14.85
2019-04-03T23:37:18.024Z,14.38
2019-04-03T23:39:44.470Z,14.23
2019-04-03T23:42:10.768Z,15.13
2019-04-03T23:44:37.196Z,15.38
2019-04-03T23:47:03.711Z,15.68
2019-04-03T23:49:30.036Z,15.78
2019-04-03T23:51:58.654Z,16.42
2019-04-03T23:54:24.678Z,16.35
2019-04-03T23:56:51.108Z,15.75
2019-04-03T23:59:18.794Z,17.77
